createdAt,value
2018-09-02T00:00:58.957Z,5.63
2018-09-02T00:03:27.526Z,5.70
2018-09-02T00:05:56.138Z,10.30
2018-09-02T00:08:24.693Z,6.87
2018-09-02T00:10:53.270Z,5.70
2018-09-02T00:13:21.847Z,12.80
2018-09-02T00:15:50.429Z,6.60
2018-09-02T00:18:19.012Z,7.77
2018-09-02T00:20:47.600Z,7.17
2018-09-02T00:23:16.168Z,4.50
2018-09-02T00:25:44.786Z,7.13
2018-09-02T00:28:13.389Z,6.40
2018-09-02T00:30:41.993Z,6.43
2018-09-02T00:33:10.618Z,4.70
2018-09-02T00:35:39.196Z,5.20
2018-09-02T00:38:07.797Z,7.90
2018-09-02T00:40:36.405Z,6.90
2018-09-02T00:43:04.992Z,5.00
2018-09-02T00:45:33.765Z,6.33
2018-09-02T00:48:02.347Z,32.43
2018-09-02T00:50:30.955Z,10.80
2018-09-02T00:52:59.516Z,6.63
2018-09-02T00:55:28.101Z,7.73
2018-09-02T00:57:56.673Z,4.50
2018-09-02T01:00:25.272Z,5.20
2018-09-02T01:02:53.858Z,11.23
2018-09-02T01:05:22.517Z,5.67
2018-09-02T01:07:51.114Z,6.60
2018-09-02T01:10:19.754Z,6.97
2018-09-02T01:12:48.326Z,5.97
2018-09-02T01:15:16.970Z,6.10
2018-09-02T01:17:45.552Z,6.70
2018-09-02T01:20:14.149Z,10.47
2018-09-02T01:22:42.728Z,5.90
2018-09-02T01:25:11.347Z,4.50
2018-09-02T01:27:39.902Z,5.57
2018-09-02T01:30:08.524Z,7.43
2018-09-02T01:32:37.158Z,5.90
2018-09-02T01:35:05.841Z,5.70
2018-09-02T01:37:34.389Z,6.70
2018-09-02T01:40:02.986Z,5.73
2018-09-02T01:42:31.542Z,7.10
2018-09-02T01:45:00.135Z,6.60
2018-09-02T01:47:28.698Z,7.50
2018-09-02T01:49:57.286Z,7.00
2018-09-02T01:52:25.850Z,7.43
2018-09-02T01:54:54.433Z,10.23
2018-09-02T01:57:22.986Z,5.87
2018-09-02T01:59:51.559Z,9.00
2018-09-02T02:02:20.125Z,6.10
2018-09-02T02:04:48.675Z,6.93
2018-09-02T02:07:17.253Z,5.30
2018-09-02T02:09:45.846Z,6.20
2018-09-02T02:12:14.425Z,7.00
2018-09-02T02:14:42.985Z,7.30
2018-09-02T02:17:11.610Z,6.30
2018-09-02T02:19:40.239Z,10.90
2018-09-02T02:22:08.834Z,5.33
2018-09-02T02:24:37.440Z,7.67
2018-09-02T02:27:06.061Z,6.57
2018-09-02T02:29:34.687Z,6.07
2018-09-02T02:32:03.278Z,4.80
2018-09-02T02:34:31.857Z,4.80
2018-09-02T02:37:00.457Z,7.30
2018-09-02T02:39:29.061Z,4.63
2018-09-02T02:41:57.682Z,5.03
2018-09-02T02:44:26.267Z,6.53
2018-09-02T02:46:54.861Z,5.27
2018-09-02T02:49:23.442Z,6.03
2018-09-02T02:51:52.068Z,6.60
2018-09-02T02:54:20.629Z,5.70
2018-09-02T02:56:49.237Z,5.00
2018-09-02T02:59:17.807Z,4.90
2018-09-02T03:01:46.394Z,6.97
2018-09-02T03:04:14.972Z,5.63
2018-09-02T03:06:43.579Z,9.90
2018-09-02T03:09:12.805Z,5.87
2018-09-02T03:11:41.691Z,6.90
2018-09-02T03:14:11.019Z,7.03
2018-09-02T03:16:39.637Z,7.80
2018-09-02T03:19:08.582Z,7.90
2018-09-02T03:21:37.204Z,6.00
2018-09-02T03:24:05.858Z,11.53
2018-09-02T03:26:34.462Z,10.90
2018-09-02T03:29:03.061Z,10.80
2018-09-02T03:31:31.641Z,9.10
2018-09-02T03:34:00.213Z,8.30
2018-09-02T03:36:28.822Z,9.23
2018-09-02T03:38:57.386Z,6.33
2018-09-02T03:41:25.981Z,9.17
2018-09-02T03:43:54.611Z,10.20
2018-09-02T03:46:23.307Z,6.87
2018-09-02T03:48:51.929Z,5.87
2018-09-02T03:51:20.571Z,5.43
2018-09-02T03:53:49.150Z,5.70
2018-09-02T03:56:17.746Z,5.87
2018-09-02T03:58:46.396Z,7.73
2018-09-02T04:01:15.049Z,7.13
2018-09-02T04:03:43.625Z,5.10
2018-09-02T04:06:12.237Z,4.93
2018-09-02T04:08:40.808Z,6.00
2018-09-02T04:11:09.402Z,7.40
2018-09-02T04:13:38.022Z,12.70
2018-09-02T04:16:06.588Z,8.07
2018-09-02T04:18:35.214Z,11.37
2018-09-02T04:21:03.803Z,7.03
2018-09-02T04:23:32.388Z,4.97
2018-09-02T04:26:00.970Z,6.03
2018-09-02T04:28:29.565Z,10.17
2018-09-02T04:30:58.134Z,6.30
2018-09-02T04:33:26.704Z,6.93
2018-09-02T04:35:55.255Z,5.50
2018-09-02T04:38:23.830Z,5.57
2018-09-02T04:40:52.377Z,4.90
2018-09-02T04:43:20.960Z,5.17
2018-09-02T04:45:49.527Z,6.50
2018-09-02T04:48:18.113Z,3.90
2018-09-02T04:50:46.683Z,9.10
2018-09-02T04:53:15.254Z,8.20
2018-09-02T04:55:43.834Z,6.47
2018-09-02T04:58:12.425Z,5.50
2018-09-02T05:00:40.997Z,6.63
2018-09-02T05:03:09.585Z,5.30
2018-09-02T05:05:38.149Z,4.10
2018-09-02T05:08:06.765Z,5.53
2018-09-02T05:10:35.379Z,10.50
2018-09-02T05:13:03.978Z,7.07
2018-09-02T05:15:32.532Z,7.03
2018-09-02T05:18:01.163Z,5.40
2018-09-02T05:20:29.729Z,4.77
2018-09-02T05:22:58.345Z,5.50
2018-09-02T05:25:26.965Z,4.60
2018-09-02T05:27:55.597Z,4.90
2018-09-02T05:30:24.231Z,5.33
2018-09-02T05:32:52.865Z,6.20
2018-09-02T05:35:21.423Z,5.90
2018-09-02T05:37:49.999Z,4.93
2018-09-02T05:40:18.577Z,6.80
2018-09-02T05:42:47.198Z,5.60
2018-09-02T05:45:15.769Z,7.67
2018-09-02T05:47:44.354Z,7.37
2018-09-02T05:50:12.920Z,6.70
2018-09-02T05:52:41.532Z,7.30
2018-09-02T05:55:10.089Z,5.93
2018-09-02T05:57:38.736Z,7.03
2018-09-02T06:00:07.452Z,6.67
2018-09-02T06:02:36.065Z,11.60
2018-09-02T06:05:04.882Z,10.17
2018-09-02T06:07:33.457Z,9.67
2018-09-02T06:10:02.029Z,11.03
2018-09-02T06:12:30.600Z,11.00
2018-09-02T06:14:59.203Z,15.63
2018-09-02T06:17:27.881Z,13.53
2018-09-02T06:19:56.496Z,16.80
2018-09-02T06:22:25.070Z,13.60
2018-09-02T06:24:53.701Z,14.67
2018-09-02T06:27:22.272Z,16.40
2018-09-02T06:29:50.879Z,17.70
2018-09-02T06:32:19.453Z,17.97
2018-09-02T06:34:48.064Z,18.07
2018-09-02T06:37:16.653Z,19.47
2018-09-02T06:39:45.250Z,16.47
2018-09-02T06:42:13.828Z,17.77
2018-09-02T06:44:42.412Z,16.53
2018-09-02T06:47:10.989Z,18.07
2018-09-02T06:49:39.576Z,18.57
2018-09-02T06:52:08.157Z,18.23
2018-09-02T06:54:36.781Z,20.57
2018-09-02T06:57:05.501Z,17.73
2018-09-02T06:59:34.183Z,16.50
2018-09-02T07:02:02.784Z,17.37
2018-09-02T07:04:31.382Z,14.30
2018-09-02T07:06:59.971Z,16.07
2018-09-02T07:09:28.575Z,15.43
2018-09-02T07:11:57.163Z,12.30
2018-09-02T07:14:25.851Z,12.43
2018-09-02T07:16:54.363Z,13.17
2018-09-02T07:19:22.948Z,12.20
2018-09-02T07:21:51.522Z,16.73
2018-09-02T07:24:20.299Z,14.10
2018-09-02T07:26:48.882Z,13.67
2018-09-02T07:29:17.472Z,15.10
2018-09-02T07:31:46.059Z,10.50
2018-09-02T07:34:14.662Z,11.93
2018-09-02T07:36:43.253Z,10.83
2018-09-02T07:39:11.875Z,11.63
2018-09-02T07:41:40.451Z,11.03
2018-09-02T07:44:09.124Z,13.90
2018-09-02T07:46:37.682Z,14.97
2018-09-02T07:49:06.330Z,10.53
2018-09-02T07:51:34.913Z,14.47
2018-09-02T07:54:03.521Z,9.67
2018-09-02T07:56:32.123Z,9.60
2018-09-02T07:59:00.717Z,11.00
2018-09-02T08:01:29.325Z,9.93
2018-09-02T08:03:57.913Z,10.03
2018-09-02T08:06:26.512Z,9.37
2018-09-02T08:08:55.090Z,10.20
2018-09-02T08:11:23.722Z,7.90
2018-09-02T08:13:52.303Z,8.27
2018-09-02T08:16:20.980Z,10.87
2018-09-02T08:18:49.578Z,8.93
2018-09-02T08:21:18.173Z,7.30
2018-09-02T08:23:46.958Z,5.83
2018-09-02T08:26:15.602Z,8.93
2018-09-02T08:28:44.269Z,7.17
2018-09-02T08:31:12.926Z,7.03
2018-09-02T08:33:41.529Z,7.27
2018-09-02T08:36:10.131Z,6.73
2018-09-02T08:38:38.794Z,6.07
2018-09-02T08:41:07.359Z,5.67
2018-09-02T08:43:35.938Z,5.53
2018-09-02T08:46:04.530Z,5.70
2018-09-02T08:48:33.112Z,5.13
2018-09-02T08:51:01.710Z,5.53
2018-09-02T08:53:30.292Z,5.23
2018-09-02T08:55:58.928Z,5.63
2018-09-02T08:58:27.495Z,5.97
2018-09-02T09:00:56.092Z,3.70
2018-09-02T09:03:24.722Z,4.87
2018-09-02T09:05:53.310Z,4.53
2018-09-02T09:08:21.957Z,3.43
2018-09-02T09:10:50.612Z,6.10
2018-09-02T09:13:19.172Z,4.13
2018-09-02T09:15:47.748Z,3.80
2018-09-02T09:18:16.305Z,4.90
2018-09-02T09:20:44.880Z,4.77
2018-09-02T09:23:13.469Z,3.50
2018-09-02T09:25:42.056Z,3.07
2018-09-02T09:28:10.642Z,3.30
2018-09-02T09:30:39.213Z,2.87
2018-09-02T09:33:08.081Z,3.40
2018-09-02T09:35:36.659Z,3.43
2018-09-02T09:38:05.258Z,7.50
2018-09-02T09:40:33.832Z,2.83
2018-09-02T09:43:02.485Z,3.80
2018-09-02T09:45:31.084Z,2.97
2018-09-02T09:47:59.676Z,3.07
2018-09-02T09:50:28.242Z,3.50
2018-09-02T09:52:56.845Z,3.03
2018-09-02T09:55:25.722Z,3.07
2018-09-02T09:57:54.304Z,5.20
2018-09-02T10:00:28.153Z,2.90
2018-09-02T10:02:56.724Z,4.00
2018-09-02T10:05:25.297Z,3.13
2018-09-02T10:07:53.884Z,3.40
2018-09-02T10:10:22.465Z,3.10
2018-09-02T10:12:51.065Z,3.20
2018-09-02T10:15:19.614Z,3.03
2018-09-02T10:17:48.184Z,2.83
2018-09-02T10:20:16.801Z,2.67
2018-09-02T10:22:45.401Z,4.90
2018-09-02T10:25:13.992Z,3.20
2018-09-02T10:27:42.654Z,3.10
2018-09-02T10:30:11.233Z,3.53
2018-09-02T10:32:39.870Z,2.93
2018-09-02T10:35:08.468Z,2.70
2018-09-02T10:37:37.062Z,3.20
2018-09-02T10:40:05.989Z,4.00
2018-09-02T10:42:34.581Z,3.33
2018-09-02T10:45:03.160Z,3.10
2018-09-02T10:47:31.764Z,3.00
2018-09-02T10:50:00.343Z,2.90
2018-09-02T10:52:28.944Z,2.70
2018-09-02T10:54:57.511Z,2.50
2018-09-02T10:57:26.070Z,5.53
2018-09-02T10:59:54.662Z,2.97
2018-09-02T11:02:23.227Z,3.13
2018-09-02T11:04:51.818Z,3.70
2018-09-02T11:07:20.387Z,2.37
2018-09-02T11:09:48.990Z,2.30
2018-09-02T11:12:17.576Z,2.30
2018-09-02T11:14:46.258Z,2.30
2018-09-02T11:17:14.822Z,3.27
2018-09-02T11:19:43.651Z,2.07
2018-09-02T11:22:12.552Z,1.77
2018-09-02T11:24:41.146Z,3.10
2018-09-02T11:27:10.052Z,2.50
2018-09-02T11:29:38.698Z,1.87
2018-09-02T11:32:07.319Z,2.33
2018-09-02T11:34:35.915Z,2.47
2018-09-02T11:37:04.496Z,2.17
2018-09-02T11:39:33.091Z,2.37
2018-09-02T11:42:01.642Z,1.90
2018-09-02T11:44:30.230Z,2.13
2018-09-02T11:46:58.886Z,2.20
2018-09-02T11:49:27.406Z,2.30
2018-09-02T11:51:55.955Z,1.83
2018-09-02T11:54:24.557Z,2.87
2018-09-02T11:56:53.109Z,4.90
2018-09-02T11:59:21.694Z,2.57
2018-09-02T12:01:50.320Z,2.30
2018-09-02T12:04:18.900Z,2.30
2018-09-02T12:06:47.477Z,2.53
2018-09-02T12:09:16.071Z,4.97
2018-09-02T12:11:44.687Z,2.43
2018-09-02T12:14:13.245Z,2.10
2018-09-02T12:16:41.810Z,2.20
2018-09-02T12:19:10.409Z,6.63
2018-09-02T12:21:39.028Z,2.23
2018-09-02T12:24:07.639Z,1.90
2018-09-02T12:26:36.216Z,1.60
2018-09-02T12:29:04.788Z,1.77
2018-09-02T12:31:34.266Z,2.07
2018-09-02T12:34:02.804Z,2.10
2018-09-02T12:36:31.422Z,1.90
2018-09-02T12:38:59.994Z,1.90
2018-09-02T12:41:28.607Z,1.80
2018-09-02T12:43:57.193Z,1.80
2018-09-02T12:46:25.790Z,2.20
2018-09-02T12:48:54.354Z,1.63
2018-09-02T12:51:22.996Z,1.50
2018-09-02T12:53:51.547Z,1.77
2018-09-02T12:56:20.176Z,2.00
2018-09-02T12:58:48.747Z,1.70
2018-09-02T13:01:17.453Z,5.03
2018-09-02T13:03:45.978Z,1.50
2018-09-02T13:06:14.554Z,1.70
2018-09-02T13:08:43.121Z,2.00
2018-09-02T13:11:11.740Z,2.37
2018-09-02T13:13:40.342Z,1.83
2018-09-02T13:16:08.938Z,1.40
2018-09-02T13:18:37.579Z,1.63
2018-09-02T13:21:06.189Z,1.73
2018-09-02T13:23:34.757Z,1.60
2018-09-02T13:26:03.382Z,2.63
2018-09-02T13:28:31.936Z,1.50
2018-09-02T13:31:00.674Z,1.40
2018-09-02T13:33:29.293Z,2.00
2018-09-02T13:35:57.891Z,1.70
2018-09-02T13:38:26.480Z,1.60
2018-09-02T13:40:55.089Z,1.50
2018-09-02T13:43:23.681Z,1.63
2018-09-02T13:45:52.258Z,1.67
2018-09-02T13:48:20.836Z,1.30
2018-09-02T13:50:49.428Z,2.20
2018-09-02T13:53:18.013Z,1.50
2018-09-02T13:55:46.592Z,2.07
2018-09-02T13:58:15.140Z,1.60
2018-09-02T14:00:43.788Z,1.70
2018-09-02T14:03:12.356Z,1.60
2018-09-02T14:05:40.917Z,3.00
2018-09-02T14:08:09.506Z,1.70
2018-09-02T14:10:38.087Z,1.30
2018-09-02T14:13:06.689Z,1.50
2018-09-02T14:15:35.283Z,1.60
2018-09-02T14:18:03.917Z,1.87
2018-09-02T14:20:32.619Z,1.60
2018-09-02T14:23:01.264Z,3.90
2018-09-02T14:25:29.873Z,1.90
2018-09-02T14:27:58.464Z,1.70
2018-09-02T14:30:27.022Z,1.87
2018-09-02T14:32:55.662Z,1.80
2018-09-02T14:35:24.220Z,1.63
2018-09-02T14:37:52.808Z,1.80
2018-09-02T14:40:21.400Z,1.93
2018-09-02T14:42:49.965Z,1.87
2018-09-02T14:45:18.578Z,1.53
2018-09-02T14:47:47.169Z,1.90
2018-09-02T14:50:15.762Z,1.77
2018-09-02T14:52:44.346Z,1.57
2018-09-02T14:55:12.941Z,1.97
2018-09-02T14:57:41.586Z,1.73
2018-09-02T15:00:10.196Z,1.80
2018-09-02T15:02:38.898Z,2.10
2018-09-02T15:05:07.754Z,1.70
2018-09-02T15:07:36.343Z,1.90
2018-09-02T15:10:05.279Z,1.90
2018-09-02T15:12:33.967Z,2.03
2018-09-02T15:15:02.539Z,1.63
2018-09-02T15:17:31.118Z,1.53
2018-09-02T15:19:59.928Z,2.40
2018-09-02T15:22:28.522Z,2.20
2018-09-02T15:24:57.412Z,1.83
2018-09-02T15:27:33.822Z,3.67
2018-09-02T15:30:02.449Z,1.90
2018-09-02T15:32:31.068Z,1.73
2018-09-02T15:34:59.643Z,1.80
2018-09-02T15:37:28.293Z,1.43
2018-09-02T15:39:56.981Z,1.60
2018-09-02T15:42:25.573Z,1.60
2018-09-02T15:44:54.212Z,2.10
2018-09-02T15:47:22.849Z,2.90
2018-09-02T15:49:51.417Z,1.80
2018-09-02T15:52:19.983Z,2.80
2018-09-02T15:54:48.561Z,1.93
2018-09-02T15:57:17.191Z,1.63
2018-09-02T15:59:45.785Z,1.57
2018-09-02T16:02:14.358Z,1.63
2018-09-02T16:04:43.083Z,1.63
2018-09-02T16:07:11.789Z,1.70
2018-09-02T16:09:40.374Z,2.53
2018-09-02T16:12:09.224Z,1.50
2018-09-02T16:14:37.810Z,1.40
2018-09-02T16:17:06.416Z,1.77
2018-09-02T16:19:35.114Z,1.13
2018-09-02T16:22:03.694Z,3.67
2018-09-02T16:24:32.303Z,1.97
2018-09-02T16:27:00.915Z,1.57
2018-09-02T16:29:29.536Z,1.50
2018-09-02T16:31:58.097Z,3.47
2018-09-02T16:34:26.684Z,1.43
2018-09-02T16:36:55.248Z,2.30
2018-09-02T16:39:23.834Z,1.73
2018-09-02T16:41:52.391Z,1.93
2018-09-02T16:44:20.990Z,2.23
2018-09-02T16:46:49.553Z,1.50
2018-09-02T16:49:18.127Z,1.50
2018-09-02T16:51:46.687Z,2.07
2018-09-02T16:54:15.307Z,1.37
2018-09-02T16:56:43.909Z,1.40
2018-09-02T16:59:12.483Z,1.60
2018-09-02T17:01:41.063Z,1.70
2018-09-02T17:04:10.261Z,1.93
2018-09-02T17:06:39.226Z,1.70
2018-09-02T17:09:09.735Z,1.53
2018-09-02T17:11:38.847Z,1.70
2018-09-02T17:14:07.849Z,1.73
2018-09-02T17:16:36.441Z,2.10
2018-09-02T17:19:08.474Z,1.90
2018-09-02T17:21:37.085Z,1.37
2018-09-02T17:24:05.703Z,2.40
2018-09-02T17:26:34.286Z,1.30
2018-09-02T17:29:02.854Z,1.30
2018-09-02T17:31:31.443Z,1.40
2018-09-02T17:34:00.008Z,1.70
2018-09-02T17:36:28.603Z,1.50
2018-09-02T17:38:57.438Z,1.30
2018-09-02T17:41:26.029Z,2.70
2018-09-02T17:43:54.612Z,1.33
2018-09-02T17:46:23.201Z,2.03
2018-09-02T17:48:51.780Z,1.97
2018-09-02T17:51:20.386Z,2.63
2018-09-02T17:53:48.961Z,4.10
2018-09-02T17:56:17.544Z,1.97
2018-09-02T17:58:46.333Z,3.63
2018-09-02T18:01:15.030Z,1.20
2018-09-02T18:03:43.607Z,2.20
2018-09-02T18:06:12.201Z,1.80
2018-09-02T18:08:40.780Z,1.60
2018-09-02T18:11:09.417Z,1.43
2018-09-02T18:13:37.987Z,2.60
2018-09-02T18:16:06.768Z,1.40
2018-09-02T18:18:35.409Z,2.70
2018-09-02T18:21:04.009Z,2.00
2018-09-02T18:23:32.603Z,1.90
2018-09-02T18:26:01.205Z,2.00
2018-09-02T18:28:32.680Z,1.73
2018-09-02T18:31:01.308Z,1.83
2018-09-02T18:33:29.863Z,2.93
2018-09-02T18:35:58.466Z,1.70
2018-09-02T18:38:27.078Z,1.77
2018-09-02T18:40:55.702Z,1.70
2018-09-02T18:43:24.270Z,4.10
2018-09-02T18:45:52.949Z,1.87
2018-09-02T18:48:21.530Z,1.80
2018-09-02T18:50:50.128Z,2.37
2018-09-02T18:53:18.694Z,1.73
2018-09-02T18:55:47.247Z,2.30
2018-09-02T18:58:15.861Z,2.50
2018-09-02T19:00:44.436Z,2.60
2018-09-02T19:03:13.067Z,2.40
2018-09-02T19:05:41.662Z,2.70
2018-09-02T19:08:10.236Z,2.63
2018-09-02T19:10:38.798Z,2.80
2018-09-02T19:13:07.421Z,4.53
2018-09-02T19:15:35.997Z,2.60
2018-09-02T19:18:04.621Z,3.10
2018-09-02T19:20:33.248Z,4.27
2018-09-02T19:23:01.866Z,2.70
2018-09-02T19:25:30.638Z,2.50
2018-09-02T19:27:59.253Z,3.27
2018-09-02T19:30:27.837Z,3.10
2018-09-02T19:32:56.439Z,3.10
2018-09-02T19:35:25.036Z,3.23
2018-09-02T19:37:53.848Z,3.17
2018-09-02T19:40:22.439Z,9.43
2018-09-02T19:42:51.076Z,4.27
2018-09-02T19:45:19.658Z,4.40
2018-09-02T19:47:48.270Z,7.07
2018-09-02T19:50:16.864Z,5.40
2018-09-02T19:52:45.477Z,11.73
2018-09-02T19:55:14.052Z,9.90
2018-09-02T19:57:42.665Z,6.40
2018-09-02T20:00:12.382Z,4.57
2018-09-02T20:02:40.968Z,5.10
2018-09-02T20:05:09.588Z,4.30
2018-09-02T20:07:38.198Z,5.63
2018-09-02T20:10:07.214Z,6.20
2018-09-02T20:12:35.817Z,5.03
2018-09-02T20:15:04.480Z,4.60
2018-09-02T20:17:33.082Z,5.00
2018-09-02T20:20:01.691Z,5.20
2018-09-02T20:22:30.295Z,11.63
2018-09-02T20:24:58.920Z,13.07
2018-09-02T20:27:27.518Z,10.20
2018-09-02T20:29:56.141Z,6.07
2018-09-02T20:32:24.790Z,6.00
2018-09-02T20:34:53.383Z,6.40
2018-09-02T20:37:21.985Z,5.37
2018-09-02T20:39:50.563Z,5.33
2018-09-02T20:42:19.217Z,6.77
2018-09-02T20:44:47.800Z,5.30
2018-09-02T20:47:16.406Z,4.73
2018-09-02T20:49:44.978Z,6.20
2018-09-02T20:52:13.574Z,8.97
2018-09-02T20:54:42.167Z,9.20
2018-09-02T20:57:10.799Z,6.20
2018-09-02T20:59:40.180Z,4.63
2018-09-02T21:02:08.796Z,5.37
2018-09-02T21:04:37.434Z,5.27
2018-09-02T21:07:06.111Z,6.90
2018-09-02T21:09:34.760Z,6.27
2018-09-02T21:12:03.410Z,5.17
2018-09-02T21:14:32.068Z,6.13
2018-09-02T21:17:00.708Z,5.17
2018-09-02T21:19:29.313Z,7.63
2018-09-02T21:21:57.932Z,5.83
2018-09-02T21:24:26.531Z,6.10
2018-09-02T21:26:55.140Z,6.83
2018-09-02T21:29:23.819Z,8.47
2018-09-02T21:31:52.403Z,7.23
2018-09-02T21:34:21.090Z,7.30
2018-09-02T21:36:49.678Z,6.30
2018-09-02T21:39:18.271Z,5.40
2018-09-02T21:41:46.830Z,6.07
2018-09-02T21:44:15.417Z,6.40
2018-09-02T21:46:44.022Z,8.03
2018-09-02T21:49:12.611Z,10.10
2018-09-02T21:51:41.185Z,8.17
2018-09-02T21:54:09.753Z,5.57
2018-09-02T21:56:38.349Z,8.87
2018-09-02T21:59:06.980Z,6.93
2018-09-02T22:01:35.549Z,6.43
2018-09-02T22:04:04.151Z,6.40
2018-09-02T22:06:32.724Z,6.37
2018-09-02T22:09:05.459Z,5.37
2018-09-02T22:11:34.029Z,6.37
2018-09-02T22:14:02.628Z,9.27
2018-09-02T22:16:31.200Z,5.70
2018-09-02T22:18:59.801Z,7.03
2018-09-02T22:21:28.351Z,8.30
2018-09-02T22:23:56.950Z,7.07
2018-09-02T22:26:25.570Z,6.73
2018-09-02T22:28:54.481Z,7.43
2018-09-02T22:31:23.051Z,6.23
2018-09-02T22:33:51.701Z,5.90
2018-09-02T22:36:20.386Z,7.00
2018-09-02T22:38:48.982Z,7.80
2018-09-02T22:41:17.595Z,8.07
2018-09-02T22:43:46.496Z,6.53
2018-09-02T22:46:15.448Z,10.63
2018-09-02T22:48:44.056Z,8.57
2018-09-02T22:51:12.670Z,6.20
2018-09-02T22:53:41.678Z,8.77
2018-09-02T22:56:10.245Z,7.07
2018-09-02T22:58:38.846Z,11.03
2018-09-02T23:01:07.438Z,7.63
2018-09-02T23:03:36.004Z,8.40
2018-09-02T23:06:04.611Z,7.17
2018-09-02T23:08:33.170Z,10.03
2018-09-02T23:11:01.771Z,6.70
2018-09-02T23:13:30.592Z,6.23
2018-09-02T23:15:59.223Z,8.00
2018-09-02T23:18:27.820Z,7.40
2018-09-02T23:20:56.477Z,8.20
2018-09-02T23:23:25.101Z,7.70
2018-09-02T23:25:53.755Z,7.60
2018-09-02T23:28:22.421Z,8.23
2018-09-02T23:30:51.018Z,6.43
2018-09-02T23:33:19.586Z,7.20
2018-09-02T23:35:48.186Z,10.00
2018-09-02T23:38:16.768Z,7.83
2018-09-02T23:40:45.350Z,7.80
2018-09-02T23:43:13.910Z,7.13
2018-09-02T23:45:42.515Z,7.83
2018-09-02T23:48:11.086Z,7.97
2018-09-02T23:50:39.683Z,6.60
2018-09-02T23:53:08.549Z,10.73
2018-09-02T23:55:37.363Z,7.90
2018-09-02T23:58:06.724Z,9.20
